Time;durP1;ratioP1;P1;durP2;ratioP2;P2;SDS_P1;SDS_P2;PMS_P1;PMS_P2;Temp;Humidity;BMP_temperature;BMP_pressure;BME280_temperature;BME280_humidity;BME280_pressure;Samples;Min_cycle;Max_cycle;Signal;HPM_P1;HPM_P2
2022/07/26 00:00:09;;;;;;;1.92;1.17;;;;;;;21.22;51.79;100019.91;4991161;28;20054;-60
2022/07/26 00:02:36;;;;;;;3.97;1.42;;;;;;;21.26;51.99;100011.44;4993502;28;20061;-60
2022/07/26 00:05:07;;;;;;;2.53;1.20;;;;;;;21.30;51.69;100012.25;4993647;28;20077;-60
2022/07/26 00:07:34;;;;;;;2.97;1.20;;;;;;;21.29;51.74;100002.94;4993377;28;20050;-60
2022/07/26 00:10:02;;;;;;;3.35;1.20;;;;;;;21.28;51.96;100003.34;4990560;28;20046;-61
2022/07/26 00:12:29;;;;;;;3.05;1.42;;;;;;;21.35;51.78;100009.03;4993430;28;20046;-68
2022/07/26 00:14:58;;;;;;;2.08;1.02;;;;;;;21.44;51.65;100003.00;4993151;28;20061;-60
2022/07/26 00:17:25;;;;;;;2.72;1.15;;;;;;;21.49;51.54;100013.97;4993027;28;20411;-61
2022/07/26 00:19:53;;;;;;;5.90;1.23;;;;;;;21.57;51.31;100000.63;4989775;28;20077;-60
2022/07/26 00:22:38;;;;;;;3.28;1.30;;;;;;;21.58;51.14;100007.91;4993052;28;20376;-60
2022/07/26 00:25:08;;;;;;;2.78;1.20;;;;;;;21.56;51.26;99999.81;4993363;28;20513;-61
2022/07/26 00:27:36;;;;;;;3.15;1.10;;;;;;;21.48;51.28;99998.16;4992752;28;20058;-61
2022/07/26 00:30:07;;;;;;;2.55;1.08;;;;;;;21.52;51.29;100001.81;4970795;28;20065;-61
2022/07/26 00:32:35;;;;;;;2.30;1.08;;;;;;;21.57;51.29;99997.81;4973348;28;20055;-61
2022/07/26 00:35:02;;;;;;;3.03;1.17;;;;;;;21.58;51.30;99999.41;4973478;28;20054;-61
2022/07/26 00:37:29;;;;;;;3.35;1.35;;;;;;;21.57;51.34;100003.47;4971613;28;20139;-60
2022/07/26 00:40:00;;;;;;;4.18;1.25;;;;;;;21.55;51.43;100000.22;4971885;28;20431;-61
2022/07/26 00:42:27;;;;;;;3.50;1.10;;;;;;;21.53;51.51;100011.16;4973264;28;20058;-61
2022/07/26 00:44:54;;;;;;;3.85;1.20;;;;;;;21.49;51.62;100014.78;4973241;28;20061;-61
2022/07/26 00:47:23;;;;;;;2.70;1.15;;;;;;;21.57;51.53;100011.97;4973336;28;20061;-61
2022/07/26 00:49:50;;;;;;;3.25;1.10;;;;;;;21.56;51.49;100018.84;4969833;28;20411;-60
2022/07/26 00:52:18;;;;;;;6.32;1.35;;;;;;;21.55;51.61;100017.22;4973074;28;20051;-61
2022/07/26 00:54:45;;;;;;;4.03;1.40;;;;;;;21.57;51.68;100020.47;4973105;28;20058;-61
2022/07/26 00:57:13;;;;;;;2.75;1.48;;;;;;;21.53;51.87;100025.31;4973071;28;20055;-60
2022/07/26 00:59:42;;;;;;;4.13;1.55;;;;;;;21.47;51.99;100024.88;4968307;28;20510;-60
2022/07/26 01:02:10;;;;;;;4.35;1.40;;;;;;;21.46;52.19;100021.25;4973381;28;20051;-60
2022/07/26 01:04:38;;;;;;;3.25;1.60;;;;;;;21.42;52.16;100020.44;4973111;28;20058;-60
2022/07/26 01:07:06;;;;;;;3.08;1.35;;;;;;;21.45;52.36;100027.31;4972820;28;20380;-61
2022/07/26 01:09:34;;;;;;;3.33;1.30;;;;;;;21.32;52.74;100026.03;4970496;28;20554;-60
2022/07/26 01:12:02;;;;;;;3.63;1.50;;;;;;;21.16;53.17;100015.03;4972687;28;20168;-60
2022/07/26 01:14:29;;;;;;;2.90;1.33;;;;;;;21.15;53.21;100019.09;4972838;28;20066;-60
2022/07/26 01:16:57;;;;;;;5.28;1.90;;;;;;;21.04;53.35;100011.34;4972229;28;20051;-60
2022/07/26 01:19:24;;;;;;;5.93;1.73;;;;;;;20.96;53.61;100015.34;4972919;28;20066;-60
2022/07/26 01:21:53;;;;;;;6.65;2.05;;;;;;;20.86;54.07;100002.75;4973153;28;20054;-60
2022/07/26 01:24:20;;;;;;;5.72;1.60;;;;;;;20.83;54.16;100008.38;4973196;28;20078;-60
2022/07/26 01:26:47;;;;;;;5.30;1.63;;;;;;;20.72;54.68;100016.00;4971059;28;20055;-60
2022/07/26 01:29:15;;;;;;;3.72;1.77;;;;;;;20.64;54.81;100018.81;4985743;28;20486;-61
2022/07/26 01:31:42;;;;;;;3.35;1.42;;;;;;;20.58;54.92;100009.06;4992318;28;20073;-60
2022/07/26 01:34:13;;;;;;;3.05;1.38;;;;;;;20.49;55.30;100019.88;4991891;28;20073;-62
2022/07/26 01:36:41;;;;;;;6.00;1.60;;;;;;;20.46;55.16;100012.97;4992001;28;20418;-63
2022/07/26 01:39:12;;;;;;;2.58;1.30;;;;;;;20.33;55.71;100010.88;4990393;28;20066;-61
2022/07/26 01:41:40;;;;;;;4.57;1.65;;;;;;;20.22;56.13;100017.25;4992188;28;20050;-59
2022/07/26 01:44:07;;;;;;;4.50;1.50;;;;;;;20.26;55.99;100005.94;4991970;28;20057;-62
2022/07/26 01:46:35;;;;;;;4.97;1.38;;;;;;;20.21;56.23;100021.28;4991982;28;20061;-62
2022/07/26 01:49:05;;;;;;;4.15;1.63;;;;;;;20.11;56.54;100013.50;4977627;28;20403;-62
2022/07/26 01:51:33;;;;;;;4.68;1.50;;;;;;;20.11;56.47;100015.53;4972940;28;20054;-62
2022/07/26 01:54:01;;;;;;;3.47;1.60;;;;;;;20.04;56.87;100016.28;4972540;28;20051;-62
2022/07/26 01:56:29;;;;;;;5.07;1.60;;;;;;;19.96;57.13;100020.25;4972781;28;20058;-62
2022/07/26 01:58:57;;;;;;;5.72;2.00;;;;;;;19.93;57.21;100021.00;4980056;28;20440;-62
2022/07/26 02:01:27;;;;;;;4.85;2.00;;;;;;;19.93;57.15;100021.00;4992757;28;20050;-62
2022/07/26 02:03:54;;;;;;;4.53;1.70;;;;;;;19.86;57.51;100027.41;4995535;28;20057;-62
2022/07/26 02:06:22;;;;;;;6.05;2.08;;;;;;;19.81;57.55;100030.59;4995448;28;20061;-62
2022/07/26 02:08:49;;;;;;;4.80;2.05;;;;;;;19.83;57.66;100034.66;4992005;28;20057;-61
2022/07/26 02:11:16;;;;;;;5.03;2.15;;;;;;;19.79;58.01;100030.97;4995468;28;20058;-62
2022/07/26 02:13:45;;;;;;;4.55;1.92;;;;;;;19.71;58.07;100026.44;4995378;28;20426;-62
2022/07/26 02:16:14;;;;;;;4.10;1.67;;;;;;;19.72;58.33;100033.75;4995661;28;20491;-62
2022/07/26 02:18:42;;;;;;;5.57;1.80;;;;;;;19.81;58.08;100037.06;4995505;28;20054;-61
2022/07/26 02:21:10;;;;;;;6.22;2.15;;;;;;;19.80;58.03;100035.44;4990857;28;20057;-62
2022/07/26 02:23:37;;;;;;;6.63;1.90;;;;;;;19.78;58.31;100043.50;4995438;28;20406;-62
2022/07/26 02:26:04;;;;;;;3.00;1.67;;;;;;;19.74;58.39;100037.00;4994959;28;20061;-62
2022/07/26 02:28:32;;;;;;;7.20;2.00;;;;;;;19.83;58.30;100034.66;4994768;28;20050;-61
2022/07/26 02:31:00;;;;;;;3.05;1.70;;;;;;;19.89;58.23;100034.31;4991495;28;20046;-62
2022/07/26 02:33:28;;;;;;;4.65;2.05;;;;;;;19.90;58.09;100038.75;4994109;28;20117;-62
2022/07/26 02:35:55;;;;;;;4.80;1.92;;;;;;;19.93;57.98;100044.47;4995022;28;20065;-62
2022/07/26 02:38:22;;;;;;;3.58;2.00;;;;;;;20.01;57.84;100036.84;4995122;28;20077;-62
2022/07/26 02:40:51;;;;;;;5.97;1.83;;;;;;;19.98;58.07;100035.59;4994938;28;20058;-62
2022/07/26 02:43:18;;;;;;;7.22;2.10;;;;;;;19.95;58.16;100041.22;4992223;28;20042;-62
2022/07/26 02:45:46;;;;;;;6.22;1.92;;;;;;;19.86;58.65;100038.72;4994930;28;20065;-61
2022/07/26 02:48:15;;;;;;;6.10;2.03;;;;;;;19.94;58.34;100046.06;4994635;28;20054;-62
2022/07/26 02:50:42;;;;;;;;;;;;;;;20.03;58.20;100054.22;4994990;28;20426;-62
2022/07/26 02:53:09;;;;;;;3.53;1.83;;;;;;;20.12;58.06;100053.94;4994295;28;20871;-62
2022/07/26 02:55:37;;;;;;;3.55;1.48;;;;;;;20.20;57.74;100039.47;4990011;28;20050;-62
2022/07/26 02:58:04;;;;;;;4.32;1.85;;;;;;;20.25;57.53;100038.28;4992558;28;20065;-61
2022/07/26 03:00:32;;;;;;;4.80;1.70;;;;;;;20.16;57.90;100038.59;4994905;28;20058;-67
2022/07/26 03:03:00;;;;;;;4.18;2.15;;;;;;;20.15;57.94;100039.00;4994636;28;20483;-67
2022/07/26 03:05:29;;;;;;;4.93;1.50;;;;;;;20.12;57.88;100040.59;4994801;28;20054;-68
2022/07/26 03:07:56;;;;;;;7.78;1.70;;;;;;;20.16;58.04;100035.78;4992361;28;20521;-66
2022/07/26 03:10:23;;;;;;;5.22;1.60;;;;;;;20.18;58.01;100039.03;4994647;28;20487;-67
2022/07/26 03:12:54;;;;;;;5.65;1.73;;;;;;;20.21;57.75;100037.44;4993561;28;20050;-66
2022/07/26 03:15:21;;;;;;;4.20;1.40;;;;;;;20.26;57.68;100046.38;4994173;28;20046;-67
2022/07/26 03:17:51;;;;;;;3.85;1.73;;;;;;;20.26;57.94;100039.88;4994410;28;20061;-67
2022/07/26 03:20:19;;;;;;;5.50;1.75;;;;;;;20.32;57.72;100043.19;4991640;28;20051;-66
2022/07/26 03:22:47;;;;;;;3.90;1.70;;;;;;;20.30;57.73;100045.59;4994520;28;20058;-67
2022/07/26 03:25:16;;;;;;;4.63;2.13;;;;;;;20.36;57.63;100046.84;4994377;28;20380;-66
2022/07/26 03:27:44;;;;;;;5.18;1.90;;;;;;;20.20;58.09;100047.09;4994070;28;20407;-67
2022/07/26 03:30:12;;;;;;;5.05;1.75;;;;;;;20.27;57.77;100048.00;4994397;28;20371;-66
2022/07/26 03:32:41;;;;;;;5.43;1.93;;;;;;;20.28;58.04;100048.78;4992035;28;20080;-66
2022/07/26 03:35:09;;;;;;;4.93;1.85;;;;;;;20.20;58.41;100052.75;4993923;28;20058;-66
2022/07/26 03:37:36;;;;;;;5.07;1.70;;;;;;;20.21;58.25;100051.56;4993859;28;20054;-67
2022/07/26 03:40:07;;;;;;;5.90;1.65;;;;;;;20.31;58.16;100052.88;4993771;28;20050;-67
2022/07/26 03:42:37;;;;;;;5.32;1.77;;;;;;;20.36;58.01;100058.16;4989796;28;20058;-67
2022/07/26 03:45:05;;;;;;;3.60;1.75;;;;;;;20.36;58.16;100053.31;4993839;28;20046;-67
2022/07/26 03:47:32;;;;;;;6.05;1.88;;;;;;;20.43;57.76;100058.22;4993590;28;20065;-66
2022/07/26 03:50:00;;;;;;;5.10;1.70;;;;;;;20.45;57.87;100061.47;4993697;28;20414;-67
2022/07/26 03:52:27;;;;;;;6.13;1.80;;;;;;;20.52;57.77;100060.72;4993659;28;20065;-66
2022/07/26 03:54:58;;;;;;;4.63;2.17;;;;;;;20.47;58.24;100061.88;4989189;28;20057;-67
2022/07/26 03:57:26;;;;;;;4.47;1.98;;;;;;;20.52;58.71;100072.03;4993675;28;20078;-67
2022/07/26 03:59:54;;;;;;;5.32;2.15;;;;;;;20.48;59.30;100067.16;4993175;28;20138;-66
2022/07/26 04:02:21;;;;;;;5.65;1.85;;;;;;;20.21;60.40;100072.19;4993653;28;20061;-67
2022/07/26 04:04:48;;;;;;;6.50;2.00;;;;;;;20.18;60.76;100077.78;4993246;28;20050;-69
2022/07/26 04:07:15;;;;;;;3.95;1.80;;;;;;;20.21;60.64;100071.38;4979686;28;20061;-66
2022/07/26 04:09:45;;;;;;;3.83;2.00;;;;;;;20.19;60.58;100077.41;4974018;28;20054;-67
2022/07/26 04:12:13;;;;;;;5.93;2.10;;;;;;;19.95;61.43;100078.81;4973852;28;20053;-67
2022/07/26 04:14:42;;;;;;;5.93;2.22;;;;;;;19.88;62.01;100092.84;4973376;28;20053;-67
2022/07/26 04:17:09;;;;;;;8.32;2.50;;;;;;;19.76;67.28;100091.13;4982872;28;20054;-69
2022/07/26 04:19:36;;;;;;;5.18;2.50;;;;;;;19.36;68.93;100095.44;4993166;28;20061;-67
2022/07/26 04:22:04;;;;;;;6.03;2.60;;;;;;;19.46;70.49;100088.28;4988285;28;20050;-67
2022/07/26 04:24:31;;;;;;;5.57;2.35;;;;;;;19.52;70.14;100085.94;4992954;28;20050;-67
2022/07/26 04:27:01;;;;;;;4.72;2.22;;;;;;;19.44;68.87;100094.34;4992631;28;20506;-66
2022/07/26 04:29:31;;;;;;;6.35;2.15;;;;;;;19.47;67.82;100089.94;4989417;28;20054;-67
2022/07/26 04:32:00;;;;;;;7.57;2.83;;;;;;;19.42;67.78;100098.72;4989589;28;20046;-67
2022/07/26 04:34:27;;;;;;;5.60;2.40;;;;;;;19.28;67.99;100105.00;4987777;28;20046;-67
2022/07/26 04:36:54;;;;;;;4.63;2.50;;;;;;;19.17;68.83;100112.50;4992573;28;20046;-67
2022/07/26 04:39:23;;;;;;;7.45;3.03;;;;;;;19.24;68.59;100104.16;4992702;28;20058;-67
2022/07/26 04:41:53;;;;;;;6.07;2.47;;;;;;;19.15;68.87;100110.09;4989909;28;20062;-67
2022/07/26 04:44:24;;;;;;;11.18;3.92;;;;;;;18.81;75.13;100111.97;4987778;28;20501;-67
2022/07/26 04:46:51;;;;;;;9.52;3.65;;;;;;;18.77;75.23;100109.09;4992597;28;20073;-67
2022/07/26 04:49:22;;;;;;;8.27;3.33;;;;;;;18.91;74.53;100114.16;4992470;28;20050;-67
2022/07/26 04:51:49;;;;;;;9.75;3.67;;;;;;;18.92;74.38;100118.63;4988457;28;20055;-67
2022/07/26 04:54:19;;;;;;;6.30;3.60;;;;;;;18.93;73.91;100117.41;4989668;28;20050;-67
2022/07/26 04:56:47;;;;;;;6.15;3.47;;;;;;;18.95;73.76;100119.88;4992577;28;20054;-67
2022/07/26 04:59:18;;;;;;;10.85;3.22;;;;;;;18.98;73.29;100119.94;4989489;28;20054;-66
2022/07/26 05:01:45;;;;;;;6.65;3.10;;;;;;;18.93;73.42;100117.41;4991038;28;20176;-67
2022/07/26 05:04:13;;;;;;;8.07;3.33;;;;;;;18.89;74.33;100119.38;4988110;28;20062;-67
2022/07/26 05:06:42;;;;;;;8.48;3.45;;;;;;;19.01;73.75;100124.78;4990403;28;20061;-67
2022/07/26 05:09:09;;;;;;;8.43;3.05;;;;;;;19.07;72.41;100122.47;4990415;28;20050;-66
2022/07/26 05:11:36;;;;;;;6.53;3.22;;;;;;;19.13;72.61;100120.13;4992014;28;20077;-67
2022/07/26 05:14:07;;;;;;;7.70;3.30;;;;;;;19.14;72.71;100118.94;4983350;28;20043;-69
2022/07/26 05:16:34;;;;;;;6.22;3.03;;;;;;;19.09;72.56;100125.72;4991156;28;20058;-67
2022/07/26 05:19:02;;;;;;;6.63;3.65;;;;;;;19.10;72.48;100126.53;4991282;28;20058;-46
2022/07/26 05:21:31;;;;;;;6.00;3.25;;;;;;;18.66;74.48;100125.81;4991182;28;20058;-47
2022/07/26 05:24:00;;;;;;;9.02;3.80;;;;;;;18.56;75.85;100120.84;4986961;28;20046;-47
2022/07/26 05:26:30;;;;;;;8.80;3.60;;;;;;;18.43;75.94;100117.38;4991596;28;20047;-47
2022/07/26 05:28:57;;;;;;;6.60;3.55;;;;;;;18.49;75.87;100120.72;4991755;28;20058;-47
2022/07/26 05:31:26;;;;;;;8.82;3.45;;;;;;;18.41;76.46;100130.22;4988767;28;20486;-46
2022/07/26 05:33:55;;;;;;;9.68;3.58;;;;;;;18.53;76.05;100120.78;4990982;28;20530;-47
2022/07/26 05:36:23;;;;;;;8.98;3.83;;;;;;;18.62;75.20;100119.31;4988067;28;20043;-47
2022/07/26 05:38:51;;;;;;;8.45;3.63;;;;;;;18.50;75.50;100107.41;4989077;28;20043;-47
2022/07/26 05:41:23;;;;;;;8.02;3.42;;;;;;;18.35;76.09;100109.19;4995744;28;20061;-50
2022/07/26 05:43:50;;;;;;;8.70;4.00;;;;;;;18.29;76.10;100113.50;4995628;28;20073;-46
2022/07/26 05:46:18;;;;;;;10.02;4.25;;;;;;;18.22;76.69;100122.66;4992331;28;20483;-49
2022/07/26 05:48:45;;;;;;;9.32;4.65;;;;;;;18.40;76.15;100123.78;4982545;28;20058;-46
2022/07/26 05:51:12;;;;;;;14.10;4.22;;;;;;;18.43;76.42;100123.03;4995019;28;20061;-47
2022/07/26 05:53:40;;;;;;;8.85;4.65;;;;;;;18.49;76.12;100126.34;4992947;28;20359;-47
2022/07/26 05:56:07;;;;;;;9.57;4.57;;;;;;;18.73;75.64;100127.13;4995904;28;20521;-47
2022/07/26 05:58:36;;;;;;;8.55;4.75;;;;;;;18.77;74.91;100125.19;4985499;28;20058;-47
2022/07/26 06:01:03;;;;;;;9.18;4.95;;;;;;;18.72;74.39;100126.31;4988606;28;20061;-47
2022/07/26 06:03:31;;;;;;;7.75;5.05;;;;;;;18.91;73.36;100124.63;4995336;28;20069;-47
2022/07/26 06:05:59;;;;;;;8.65;4.65;;;;;;;19.10;73.07;100135.81;4995702;28;20069;-46
2022/07/26 06:08:26;;;;;;;9.38;5.18;;;;;;;19.20;72.83;100132.34;4995383;28;20390;-50
2022/07/26 06:10:54;;;;;;;9.30;5.35;;;;;;;19.32;72.36;100134.13;4990571;28;20106;-47
2022/07/26 06:13:21;;;;;;;11.20;5.70;;;;;;;19.17;73.37;100135.09;4991706;28;20491;-49
2022/07/26 06:15:51;;;;;;;9.30;4.50;;;;;;;19.47;72.37;100135.13;4995448;28;20073;-47
2022/07/26 06:18:18;;;;;;;9.73;4.90;;;;;;;19.65;71.30;100139.00;4992047;28;20054;-48
2022/07/26 06:20:47;;;;;;;8.07;4.10;;;;;;;20.03;70.05;100139.88;4980757;28;20046;-63
2022/07/26 06:23:15;;;;;;;10.90;4.28;;;;;;;20.27;69.90;100135.66;4987820;28;20055;-62
2022/07/26 06:25:42;;;;;;;8.60;5.00;;;;;;;20.48;68.63;100139.91;4990983;28;20105;-63
2022/07/26 06:28:11;;;;;;;8.43;4.43;;;;;;;20.51;67.43;100144.78;4980539;28;20054;-62
2022/07/26 06:30:39;;;;;;;8.20;4.50;;;;;;;20.61;66.89;100140.47;4989044;28;20446;-63
2022/07/26 06:33:08;;;;;;;10.07;5.23;;;;;;;20.42;67.31;100144.28;4992840;28;20048;-62
2022/07/26 06:35:37;;;;;;;9.23;4.80;;;;;;;20.53;66.63;100142.38;4991391;28;20487;-63
2022/07/26 06:38:06;;;;;;;10.27;5.07;;;;;;;20.56;66.72;100149.28;4990190;28;20061;-63
2022/07/26 06:40:33;;;;;;;8.07;5.10;;;;;;;20.82;65.72;100139.81;4977923;28;20049;-62
2022/07/26 06:43:01;;;;;;;5.80;4.55;;;;;;;20.83;65.57;100147.09;4981771;28;20066;-63
2022/07/26 06:45:29;;;;;;;8.43;5.45;;;;;;;21.11;65.36;100145.69;4990306;28;20073;-63
2022/07/26 06:47:57;;;;;;;12.50;6.35;;;;;;;21.21;64.14;100145.75;4991186;28;20066;-63
2022/07/26 06:50:25;;;;;;;14.88;6.40;;;;;;;21.31;63.97;100149.84;4991987;28;20121;-62
2022/07/26 06:52:53;;;;;;;12.68;6.75;;;;;;;21.23;63.90;100148.19;4977355;28;20058;-63
2022/07/26 06:55:20;;;;;;;10.35;6.20;;;;;;;21.36;63.79;100149.50;4974061;28;20054;-63
2022/07/26 06:57:48;;;;;;;8.65;6.30;;;;;;;21.55;63.61;100156.91;4987868;28;20418;-64
2022/07/26 07:00:16;;;;;;;10.48;6.63;;;;;;;21.69;63.17;100156.97;4989538;28;20426;-63
2022/07/26 07:02:44;;;;;;;10.23;6.28;;;;;;;21.81;63.42;100163.50;4991122;28;20049;-63
2022/07/26 07:05:11;;;;;;;13.48;8.48;;;;;;;21.79;62.47;100165.91;4992169;28;20054;-63
2022/07/26 07:07:40;;;;;;;14.15;8.05;;;;;;;21.73;61.93;100159.81;4991645;28;20054;-63
2022/07/26 07:10:08;;;;;;;11.05;8.57;;;;;;;21.84;62.39;100155.00;4992087;28;20054;-63
2022/07/26 07:12:35;;;;;;;15.35;8.93;;;;;;;21.92;61.45;100155.84;4989664;28;20058;-63
2022/07/26 07:15:03;;;;;;;13.90;9.63;;;;;;;22.00;61.02;100151.81;4993086;28;20062;-63
2022/07/26 07:17:30;;;;;;;13.45;10.05;;;;;;;22.15;60.85;100152.66;4990633;28;20073;-63
2022/07/26 07:19:59;;;;;;;15.68;10.18;;;;;;;22.20;60.62;100160.78;4990918;28;20074;-63
2022/07/26 07:22:26;;;;;;;14.27;10.82;;;;;;;22.39;60.31;100150.31;4986294;28;20411;-63
2022/07/26 07:24:55;;;;;;;14.90;10.15;;;;;;;22.51;60.42;100161.28;4977533;28;20434;-63
2022/07/26 07:27:22;;;;;;;13.40;9.93;;;;;;;22.62;59.95;100149.94;4990463;28;20054;-63
2022/07/26 07:29:49;;;;;;;13.60;10.70;;;;;;;22.72;59.77;100160.50;4989485;28;20934;-63
2022/07/26 07:32:17;;;;;;;16.30;10.90;;;;;;;22.84;58.95;100159.25;4990071;28;20054;-63
2022/07/26 07:34:44;;;;;;;15.00;9.73;;;;;;;23.00;58.98;100167.38;4989413;28;20054;-63
2022/07/26 07:37:12;;;;;;;13.77;10.95;;;;;;;23.16;57.74;100176.31;4990146;28;20058;-63
2022/07/26 07:39:39;;;;;;;14.57;11.27;;;;;;;22.85;58.17;100167.38;4983664;28;20062;-62
2022/07/26 07:42:08;;;;;;;15.80;10.50;;;;;;;22.92;57.98;100177.13;4988181;28;20065;-63
2022/07/26 07:44:35;;;;;;;18.35;10.27;;;;;;;22.60;58.63;100189.28;4991216;28;20060;-63
2022/07/26 07:47:03;;;;;;;17.13;10.35;;;;;;;22.68;58.79;100190.91;4990271;28;20059;-63
2022/07/26 07:49:30;;;;;;;14.63;9.93;;;;;;;22.70;58.71;100188.47;4990004;28;20057;-63
2022/07/26 07:51:58;;;;;;;13.02;9.80;;;;;;;22.91;58.49;100182.00;4990070;28;20058;-63
2022/07/26 07:54:25;;;;;;;11.52;8.90;;;;;;;22.89;58.52;100187.28;4985731;28;20065;-63
2022/07/26 07:56:55;;;;;;;14.57;9.57;;;;;;;22.83;58.17;100180.38;4986327;28;20057;-63
2022/07/26 07:59:23;;;;;;;16.15;9.25;;;;;;;22.93;58.46;100190.09;4987466;28;20057;-62
2022/07/26 08:01:51;;;;;;;10.82;8.45;;;;;;;23.14;58.32;100189.28;4990275;28;20418;-63
2022/07/26 08:04:18;;;;;;;10.60;8.27;;;;;;;23.40;58.07;100197.38;4991655;28;20054;-63
2022/07/26 08:06:48;;;;;;;14.82;9.27;;;;;;;23.58;56.32;100202.22;4985873;28;20054;-63
2022/07/26 08:09:15;;;;;;;12.20;9.20;;;;;;;23.71;56.18;100204.22;4989144;28;20058;-63
2022/07/26 08:11:42;;;;;;;12.38;9.52;;;;;;;23.79;55.91;100195.69;4991825;28;20069;-63
2022/07/26 08:14:10;;;;;;;12.23;8.68;;;;;;;23.81;55.13;100184.69;4991192;28;20054;-63
2022/07/26 08:16:38;;;;;;;9.77;8.40;;;;;;;24.69;53.17;100178.94;4991802;28;20073;-63
2022/07/26 08:19:06;;;;;;;10.30;7.55;;;;;;;26.03;50.24;100177.19;4989493;28;20057;-63
2022/07/26 08:21:33;;;;;;;10.63;6.75;;;;;;;27.44;47.22;100184.38;4991890;28;20498;-63
2022/07/26 08:24:00;;;;;;;10.45;6.65;;;;;;;28.57;44.14;100170.97;4989717;28;20046;-63
2022/07/26 08:26:27;;;;;;;8.30;5.68;;;;;;;29.48;41.24;100176.88;4988443;28;20410;-63
2022/07/26 08:28:55;;;;;;;6.35;5.15;;;;;;;30.14;39.13;100168.00;4985309;28;20054;-63
2022/07/26 08:31:22;;;;;;;8.88;5.68;;;;;;;30.75;38.36;100178.41;4983118;28;20054;-63
2022/07/26 08:33:51;;;;;;;8.88;5.38;;;;;;;31.70;36.03;100174.72;4989687;28;20499;-63
2022/07/26 08:36:18;;;;;;;7.55;5.28;;;;;;;32.53;34.03;100180.22;4988999;28;20471;-63
2022/07/26 08:38:46;;;;;;;8.13;4.88;;;;;;;33.37;32.42;100173.44;4982303;28;20057;-65
2022/07/26 08:41:13;;;;;;;7.13;4.05;;;;;;;32.86;33.65;100168.97;4987363;28;20069;-61
2022/07/26 08:43:40;;;;;;;6.47;3.80;;;;;;;33.53;32.20;100172.28;4988659;28;20054;-64
2022/07/26 08:46:08;;;;;;;6.18;3.70;;;;;;;34.53;30.87;100170.53;4984669;28;20050;-61
2022/07/26 08:48:35;;;;;;;7.65;4.40;;;;;;;34.70;29.94;100170.97;4986611;28;20507;-63
2022/07/26 08:51:08;;;;;;;8.47;4.43;;;;;;;34.15;30.29;100169.06;4989497;28;20050;-60
2022/07/26 08:53:37;;;;;;;8.70;4.43;;;;;;;34.35;29.68;100182.97;4981710;28;20419;-63
2022/07/26 08:56:04;;;;;;;;;;;;;;;34.49;30.42;100172.00;4984635;28;20053;-64
2022/07/26 08:58:34;;;;;;;7.22;4.15;;;;;;;33.93;30.42;100180.78;4990519;28;19922;-63
2022/07/26 09:01:11;;;;;;;6.20;3.58;;;;;;;34.24;30.64;100174.00;4987247;28;20050;-63
2022/07/26 09:03:39;;;;;;;5.87;3.50;;;;;;;34.51;29.40;100170.22;4991371;28;20058;-63
2022/07/26 09:06:16;;;;;;;5.23;2.90;;;;;;;34.59;29.75;100173.56;4985843;28;20050;-63
2022/07/26 09:08:45;;;;;;;6.43;3.00;;;;;;;34.68;28.80;100179.31;4989424;28;20065;-63
2022/07/26 09:11:30;;;;;;;4.65;3.28;;;;;;;34.75;28.93;100181.88;4982989;28;20058;-63
2022/07/26 09:14:00;;;;;;;7.20;2.83;;;;;;;36.40;27.65;100183.13;4975624;28;20070;-61
2022/07/26 09:16:28;;;;;;;7.25;2.63;;;;;;;37.49;25.59;100177.09;4983655;28;20046;-61
2022/07/26 09:19:04;;;;;;;4.53;2.67;;;;;;;38.56;23.85;100177.44;4995399;28;20050;-61
2022/07/26 09:21:35;;;;;;;6.45;2.53;;;;;;;39.93;22.02;100171.78;4991497;28;20050;-61
2022/07/26 09:24:03;;;;;;;4.78;2.00;;;;;;;40.08;22.21;100172.31;4993253;28;20046;-61
2022/07/26 09:26:31;;;;;;;4.45;2.30;;;;;;;40.80;21.55;100177.91;4993482;28;20061;-61
2022/07/26 09:29:07;;;;;;;5.60;2.45;;;;;;;41.46;20.25;100179.06;4991488;28;20054;-61
2022/07/26 09:31:35;;;;;;;3.65;2.13;;;;;;;39.90;21.60;100176.56;4989280;28;20061;-62
2022/07/26 09:34:02;;;;;;;4.80;1.88;;;;;;;39.04;22.46;100175.91;4990825;28;20051;-60
2022/07/26 09:36:30;;;;;;;5.45;1.90;;;;;;;38.01;23.54;100179.28;4993367;28;20046;-61
2022/07/26 09:39:02;;;;;;;3.42;1.80;;;;;;;36.84;24.98;100188.88;4991881;28;20112;-61
2022/07/26 09:41:31;;;;;;;6.20;2.40;;;;;;;36.90;24.79;100192.66;4987510;28;20046;-61
2022/07/26 09:44:06;;;;;;;4.82;1.83;;;;;;;36.10;25.93;100192.63;4985270;28;20054;-61
2022/07/26 09:46:36;;;;;;;4.45;2.30;;;;;;;34.96;27.05;100196.53;4989224;28;20050;-60
2022/07/26 09:49:17;;;;;;;5.78;2.58;;;;;;;33.86;28.27;100189.78;4990906;28;20050;-61
2022/07/26 09:51:46;;;;;;;4.40;2.50;;;;;;;33.10;29.48;100195.19;4990695;28;20486;-60
2022/07/26 09:54:20;;;;;;;5.00;2.65;;;;;;;32.16;30.72;100208.84;4988851;28;20050;-61
2022/07/26 09:56:49;;;;;;;4.95;2.50;;;;;;;31.39;32.33;100212.00;4992969;28;20058;-63
2022/07/26 09:59:19;;;;;;;4.28;2.55;;;;;;;30.80;33.32;100210.72;4982994;28;20062;-60
2022/07/26 10:01:47;;;;;;;4.80;2.67;;;;;;;31.88;32.83;100208.63;4989565;28;20058;-61
2022/07/26 10:04:15;;;;;;;5.00;2.53;;;;;;;31.66;32.02;100210.69;4991955;28;20050;-62
2022/07/26 10:06:44;;;;;;;4.50;2.45;;;;;;;31.15;33.18;100223.13;4992606;28;20066;-63
2022/07/26 10:09:12;;;;;;;5.85;2.72;;;;;;;30.82;33.35;100216.81;4993929;28;20046;-61
2022/07/26 10:11:50;;;;;;;5.45;3.25;;;;;;;31.31;33.33;100216.41;4991706;28;20058;-63
2022/07/26 10:14:37;;;;;;;5.18;2.65;;;;;;;33.31;30.16;100215.75;4986615;28;20399;-62
2022/07/26 10:17:44;;;;;;;4.60;2.75;;;;;;;32.88;30.11;100223.31;4993605;28;20061;-62
2022/07/26 10:20:52;;;;;;;4.82;2.40;;;;;;;32.81;30.29;100224.41;4990860;28;20054;-62
2022/07/26 10:23:39;;;;;;;4.10;2.20;;;;;;;32.41;30.31;100221.47;4983237;28;20050;-62
2022/07/26 10:26:11;;;;;;;4.25;2.33;;;;;;;32.14;30.97;100222.91;4987424;28;20077;-61
2022/07/26 10:28:42;;;;;;;3.80;2.30;;;;;;;32.23;31.18;100228.72;4984280;28;20049;-61
2022/07/26 10:31:30;;;;;;;3.88;2.10;;;;;;;31.60;31.23;100222.00;4993455;28;20050;-63
2022/07/26 10:33:59;;;;;;;5.70;2.60;;;;;;;30.94;31.93;100236.97;4982530;28;20070;-62
2022/07/26 10:36:30;;;;;;;3.75;2.30;;;;;;;29.62;32.70;100241.66;4991275;28;20058;-63
2022/07/26 10:39:06;;;;;;;4.22;2.30;;;;;;;29.44;34.08;100252.81;4988464;28;20051;-62
2022/07/26 10:41:37;;;;;;;4.93;2.60;;;;;;;29.10;34.49;100254.88;4991081;28;20061;-62
2022/07/26 10:44:24;;;;;;;4.30;2.50;;;;;;;28.73;35.20;100239.78;4992217;28;20046;-62
2022/07/26 10:46:57;;;;;;;3.67;2.50;;;;;;;28.74;35.72;100241.38;4992168;28;20042;-63
2022/07/26 10:49:30;;;;;;;4.55;2.85;;;;;;;28.93;35.96;100241.78;4990634;28;20073;-62
2022/07/26 10:52:15;;;;;;;4.75;3.03;;;;;;;29.40;34.57;100235.72;4989520;28;20433;-62
2022/07/26 10:55:06;;;;;;;4.30;2.50;;;;;;;30.03;33.92;100242.19;4989686;28;20050;-62
2022/07/26 10:57:35;;;;;;;5.65;3.20;;;;;;;30.81;33.00;100246.84;4992095;28;20078;-62
2022/07/26 11:00:17;;;;;;;4.45;3.00;;;;;;;31.84;31.08;100248.28;4990779;28;20042;-62
2022/07/26 11:02:52;;;;;;;4.50;3.05;;;;;;;32.08;30.07;100242.09;4990309;28;20046;-62
2022/07/26 11:05:20;;;;;;;4.20;2.72;;;;;;;33.36;28.70;100235.31;4993851;28;20087;-62
2022/07/26 11:07:56;;;;;;;4.67;2.77;;;;;;;33.86;28.42;100236.03;4993822;28;20053;-62
2022/07/26 11:10:26;;;;;;;4.10;2.50;;;;;;;33.51;28.04;100236.31;4989016;28;20054;-62
2022/07/26 11:13:04;;;;;;;4.57;2.80;;;;;;;33.07;28.43;100230.75;4978820;28;20526;-61
2022/07/26 11:15:36;;;;;;;5.32;2.70;;;;;;;32.38;30.01;100240.50;4993532;28;20058;-61
2022/07/26 11:18:23;;;;;;;4.70;2.97;;;;;;;31.68;30.50;100257.09;4988910;28;20423;-61
2022/07/26 11:20:53;;;;;;;3.13;1.65;;;;;;;29.66;35.07;100261.66;4989851;28;20054;-62
2022/07/26 11:23:26;;;;;;;3.95;1.40;;;;;;;28.58;37.36;100261.44;4993773;28;20450;-62
2022/07/26 11:26:18;;;;;;;2.75;1.55;;;;;;;27.50;39.78;100277.03;4993822;28;20369;-63
2022/07/26 11:28:51;;;;;;;3.65;1.65;;;;;;;27.10;41.38;100286.25;4973087;28;20056;-62
2022/07/26 11:31:22;;;;;;;4.88;2.05;;;;;;;26.64;42.54;100287.75;4987210;28;20544;-62
2022/07/26 11:33:50;;;;;;;4.35;1.80;;;;;;;26.19;43.67;100290.78;4992379;28;20054;-63